sensor_id;sensor_type;location;lat;lon;timestamp;P1;durP1;ratioP1;P2;durP2;ratioP2
11960;SDS011;6040;49.358;11.140;2023-07-13T00:00:37;3.57;;;2.73;;
11960;SDS011;6040;49.358;11.140;2023-07-13T00:03:04;2.50;;;2.30;;
11960;SDS011;6040;49.358;11.140;2023-07-13T00:05:31;4.37;;;2.57;;
11960;SDS011;6040;49.358;11.140;2023-07-13T00:07:59;6.13;;;2.63;;
11960;SDS011;6040;49.358;11.140;2023-07-13T00:10:26;4.17;;;2.00;;
11960;SDS011;6040;49.358;11.140;2023-07-13T00:12:53;2.93;;;2.00;;
11960;SDS011;6040;49.358;11.140;2023-07-13T00:15:22;3.00;;;2.00;;
11960;SDS011;6040;49.358;11.140;2023-07-13T00:17:52;2.97;;;1.80;;
11960;SDS011;6040;49.358;11.140;2023-07-13T00:20:20;4.10;;;1.83;;
11960;SDS011;6040;49.358;11.140;2023-07-13T00:22:48;4.90;;;1.93;;
11960;SDS011;6040;49.358;11.140;2023-07-13T00:25:18;4.10;;;1.90;;
11960;SDS011;6040;49.358;11.140;2023-07-13T00:27:46;2.70;;;1.70;;
11960;SDS011;6040;49.358;11.140;2023-07-13T00:30:14;2.90;;;1.90;;
11960;SDS011;6040;49.358;11.140;2023-07-13T00:32:41;2.07;;;1.80;;
11960;SDS011;6040;49.358;11.140;2023-07-13T00:35:08;3.60;;;1.90;;
11960;SDS011;6040;49.358;11.140;2023-07-13T00:37:36;2.67;;;2.00;;
11960;SDS011;6040;49.358;11.140;2023-07-13T00:40:03;2.50;;;1.80;;
11960;SDS011;6040;49.358;11.140;2023-07-13T00:42:33;2.23;;;1.70;;
11960;SDS011;6040;49.358;11.140;2023-07-13T00:45:00;4.83;;;2.00;;
11960;SDS011;6040;49.358;11.140;2023-07-13T00:47:31;2.20;;;1.70;;
11960;SDS011;6040;49.358;11.140;2023-07-13T00:49:58;2.17;;;1.67;;
11960;SDS011;6040;49.358;11.140;2023-07-13T00:52:26;2.33;;;1.77;;
11960;SDS011;6040;49.358;11.140;2023-07-13T00:54:54;2.73;;;1.70;;
11960;SDS011;6040;49.358;11.140;2023-07-13T00:57:22;2.03;;;1.70;;
11960;SDS011;6040;49.358;11.140;2023-07-13T00:59:52;5.93;;;1.77;;
11960;SDS011;6040;49.358;11.140;2023-07-13T01:02:22;2.33;;;2.00;;
11960;SDS011;6040;49.358;11.140;2023-07-13T01:04:50;3.00;;;1.73;;
11960;SDS011;6040;49.358;11.140;2023-07-13T01:07:16;2.43;;;1.80;;
11960;SDS011;6040;49.358;11.140;2023-07-13T01:09:44;2.07;;;1.60;;
11960;SDS011;6040;49.358;11.140;2023-07-13T01:12:11;3.10;;;1.60;;
11960;SDS011;6040;49.358;11.140;2023-07-13T01:14:39;3.00;;;1.60;;
11960;SDS011;6040;49.358;11.140;2023-07-13T01:17:09;2.67;;;1.60;;
11960;SDS011;6040;49.358;11.140;2023-07-13T01:19:37;2.23;;;1.70;;
11960;SDS011;6040;49.358;11.140;2023-07-13T01:22:08;2.57;;;1.67;;
11960;SDS011;6040;49.358;11.140;2023-07-13T01:24:36;3.67;;;1.90;;
11960;SDS011;6040;49.358;11.140;2023-07-13T01:27:05;2.03;;;1.80;;
11960;SDS011;6040;49.358;11.140;2023-07-13T01:29:34;3.13;;;1.80;;
11960;SDS011;6040;49.358;11.140;2023-07-13T01:32:07;3.83;;;1.97;;
11960;SDS011;6040;49.358;11.140;2023-07-13T01:34:35;2.60;;;1.60;;
11960;SDS011;6040;49.358;11.140;2023-07-13T01:37:03;5.03;;;1.60;;
11960;SDS011;6040;49.358;11.140;2023-07-13T01:39:32;1.90;;;1.70;;
11960;SDS011;6040;49.358;11.140;2023-07-13T01:41:59;2.53;;;1.90;;
11960;SDS011;6040;49.358;11.140;2023-07-13T01:44:26;4.23;;;1.93;;
11960;SDS011;6040;49.358;11.140;2023-07-13T01:46:53;1.93;;;1.50;;
11960;SDS011;6040;49.358;11.140;2023-07-13T01:49:19;2.63;;;1.73;;
11960;SDS011;6040;49.358;11.140;2023-07-13T01:51:46;2.17;;;1.67;;
11960;SDS011;6040;49.358;11.140;2023-07-13T01:54:13;2.33;;;1.70;;
11960;SDS011;6040;49.358;11.140;2023-07-13T01:56:41;4.17;;;1.90;;
11960;SDS011;6040;49.358;11.140;2023-07-13T01:59:08;5.23;;;1.80;;
11960;SDS011;6040;49.358;11.140;2023-07-13T02:01:35;5.33;;;1.70;;
11960;SDS011;6040;49.358;11.140;2023-07-13T02:04:02;2.23;;;1.70;;
11960;SDS011;6040;49.358;11.140;2023-07-13T02:06:29;1.80;;;1.70;;
11960;SDS011;6040;49.358;11.140;2023-07-13T02:08:57;3.17;;;1.77;;
11960;SDS011;6040;49.358;11.140;2023-07-13T02:11:24;3.83;;;2.20;;
11960;SDS011;6040;49.358;11.140;2023-07-13T02:13:58;3.80;;;1.87;;
11960;SDS011;6040;49.358;11.140;2023-07-13T02:16:25;2.30;;;1.90;;
11960;SDS011;6040;49.358;11.140;2023-07-13T02:18:52;2.63;;;2.07;;
11960;SDS011;6040;49.358;11.140;2023-07-13T02:21:20;2.00;;;1.70;;
11960;SDS011;6040;49.358;11.140;2023-07-13T02:23:47;1.90;;;1.70;;
11960;SDS011;6040;49.358;11.140;2023-07-13T02:26:14;4.53;;;1.80;;
11960;SDS011;6040;49.358;11.140;2023-07-13T02:28:41;2.10;;;1.70;;
11960;SDS011;6040;49.358;11.140;2023-07-13T02:31:10;7.40;;;2.10;;
11960;SDS011;6040;49.358;11.140;2023-07-13T02:33:38;2.50;;;1.50;;
11960;SDS011;6040;49.358;11.140;2023-07-13T02:36:05;3.33;;;1.70;;
11960;SDS011;6040;49.358;11.140;2023-07-13T02:38:32;2.90;;;2.00;;
11960;SDS011;6040;49.358;11.140;2023-07-13T02:40:59;1.93;;;1.70;;
11960;SDS011;6040;49.358;11.140;2023-07-13T02:43:26;2.80;;;1.80;;
11960;SDS011;6040;49.358;11.140;2023-07-13T02:45:53;2.03;;;1.73;;
11960;SDS011;6040;49.358;11.140;2023-07-13T02:48:21;3.97;;;1.80;;
11960;SDS011;6040;49.358;11.140;2023-07-13T02:50:48;4.17;;;1.87;;
11960;SDS011;6040;49.358;11.140;2023-07-13T02:53:15;3.10;;;1.67;;
11960;SDS011;6040;49.358;11.140;2023-07-13T02:55:42;1.73;;;1.63;;
11960;SDS011;6040;49.358;11.140;2023-07-13T02:58:12;2.83;;;1.83;;
11960;SDS011;6040;49.358;11.140;2023-07-13T03:00:41;2.27;;;1.70;;
11960;SDS011;6040;49.358;11.140;2023-07-13T03:03:11;4.60;;;1.90;;
11960;SDS011;6040;49.358;11.140;2023-07-13T03:05:40;3.70;;;1.87;;
11960;SDS011;6040;49.358;11.140;2023-07-13T03:08:09;3.87;;;1.80;;
11960;SDS011;6040;49.358;11.140;2023-07-13T03:10:36;3.27;;;1.73;;
11960;SDS011;6040;49.358;11.140;2023-07-13T03:13:04;2.23;;;1.80;;
11960;SDS011;6040;49.358;11.140;2023-07-13T03:15:31;2.57;;;1.80;;
11960;SDS011;6040;49.358;11.140;2023-07-13T03:17:58;2.00;;;1.80;;
11960;SDS011;6040;49.358;11.140;2023-07-13T03:20:25;1.90;;;1.70;;
11960;SDS011;6040;49.358;11.140;2023-07-13T03:22:53;2.07;;;1.63;;
11960;SDS011;6040;49.358;11.140;2023-07-13T03:25:20;3.73;;;2.00;;
11960;SDS011;6040;49.358;11.140;2023-07-13T03:27:47;2.83;;;1.87;;
11960;SDS011;6040;49.358;11.140;2023-07-13T03:30:14;2.37;;;1.90;;
11960;SDS011;6040;49.358;11.140;2023-07-13T03:32:40;1.90;;;1.70;;
11960;SDS011;6040;49.358;11.140;2023-07-13T03:35:07;2.50;;;1.90;;
11960;SDS011;6040;49.358;11.140;2023-07-13T03:37:35;3.10;;;1.70;;
11960;SDS011;6040;49.358;11.140;2023-07-13T03:40:09;1.70;;;1.60;;
11960;SDS011;6040;49.358;11.140;2023-07-13T03:42:36;4.20;;;1.93;;
11960;SDS011;6040;49.358;11.140;2023-07-13T03:45:04;2.20;;;2.00;;
11960;SDS011;6040;49.358;11.140;2023-07-13T03:47:31;3.87;;;2.00;;
11960;SDS011;6040;49.358;11.140;2023-07-13T03:49:58;2.40;;;1.80;;
11960;SDS011;6040;49.358;11.140;2023-07-13T03:52:25;2.80;;;1.93;;
11960;SDS011;6040;49.358;11.140;2023-07-13T03:54:52;2.60;;;1.70;;
11960;SDS011;6040;49.358;11.140;2023-07-13T03:57:20;2.20;;;2.00;;
11960;SDS011;6040;49.358;11.140;2023-07-13T03:59:47;5.37;;;1.90;;
11960;SDS011;6040;49.358;11.140;2023-07-13T04:02:14;2.87;;;1.93;;
11960;SDS011;6040;49.358;11.140;2023-07-13T04:04:40;2.90;;;1.90;;
11960;SDS011;6040;49.358;11.140;2023-07-13T04:07:07;7.87;;;1.90;;
11960;SDS011;6040;49.358;11.140;2023-07-13T04:09:34;6.30;;;1.90;;
11960;SDS011;6040;49.358;11.140;2023-07-13T04:12:01;2.37;;;1.70;;
11960;SDS011;6040;49.358;11.140;2023-07-13T04:14:29;3.30;;;2.10;;
11960;SDS011;6040;49.358;11.140;2023-07-13T04:16:56;2.67;;;1.77;;
11960;SDS011;6040;49.358;11.140;2023-07-13T04:19:23;2.10;;;1.73;;
11960;SDS011;6040;49.358;11.140;2023-07-13T04:21:50;2.53;;;1.60;;
11960;SDS011;6040;49.358;11.140;2023-07-13T04:24:17;2.27;;;1.57;;
11960;SDS011;6040;49.358;11.140;2023-07-13T04:26:44;2.60;;;1.73;;
11960;SDS011;6040;49.358;11.140;2023-07-13T04:29:10;1.83;;;1.60;;
11960;SDS011;6040;49.358;11.140;2023-07-13T04:31:39;2.80;;;1.87;;
11960;SDS011;6040;49.358;11.140;2023-07-13T04:34:05;1.60;;;1.50;;
11960;SDS011;6040;49.358;11.140;2023-07-13T04:36:32;2.00;;;1.70;;
11960;SDS011;6040;49.358;11.140;2023-07-13T04:39:02;2.10;;;1.80;;
11960;SDS011;6040;49.358;11.140;2023-07-13T04:41:29;2.60;;;1.70;;
11960;SDS011;6040;49.358;11.140;2023-07-13T04:43:56;2.93;;;1.70;;
11960;SDS011;6040;49.358;11.140;2023-07-13T04:46:23;1.70;;;1.60;;
11960;SDS011;6040;49.358;11.140;2023-07-13T04:48:51;5.30;;;1.93;;
11960;SDS011;6040;49.358;11.140;2023-07-13T04:51:18;2.93;;;1.77;;
11960;SDS011;6040;49.358;11.140;2023-07-13T04:53:45;2.67;;;1.50;;
11960;SDS011;6040;49.358;11.140;2023-07-13T04:56:12;3.73;;;1.77;;
11960;SDS011;6040;49.358;11.140;2023-07-13T04:58:38;2.63;;;1.90;;
11960;SDS011;6040;49.358;11.140;2023-07-13T05:01:06;2.37;;;1.50;;
11960;SDS011;6040;49.358;11.140;2023-07-13T05:03:33;3.30;;;1.70;;
11960;SDS011;6040;49.358;11.140;2023-07-13T05:06:03;2.60;;;1.50;;
11960;SDS011;6040;49.358;11.140;2023-07-13T05:08:31;2.53;;;1.70;;
11960;SDS011;6040;49.358;11.140;2023-07-13T05:10:59;2.70;;;1.77;;
11960;SDS011;6040;49.358;11.140;2023-07-13T05:13:26;4.37;;;1.70;;
11960;SDS011;6040;49.358;11.140;2023-07-13T05:15:56;2.80;;;1.70;;
11960;SDS011;6040;49.358;11.140;2023-07-13T05:18:24;1.70;;;1.60;;
11960;SDS011;6040;49.358;11.140;2023-07-13T05:20:57;2.73;;;1.90;;
11960;SDS011;6040;49.358;11.140;2023-07-13T05:23:27;3.73;;;1.70;;
11960;SDS011;6040;49.358;11.140;2023-07-13T05:25:53;2.07;;;1.53;;
11960;SDS011;6040;49.358;11.140;2023-07-13T05:28:21;5.30;;;1.70;;
11960;SDS011;6040;49.358;11.140;2023-07-13T05:30:48;2.53;;;1.40;;
11960;SDS011;6040;49.358;11.140;2023-07-13T05:33:16;3.47;;;1.80;;
11960;SDS011;6040;49.358;11.140;2023-07-13T05:35:43;2.23;;;1.50;;
11960;SDS011;6040;49.358;11.140;2023-07-13T05:38:10;1.83;;;1.40;;
11960;SDS011;6040;49.358;11.140;2023-07-13T05:40:38;3.27;;;1.60;;
11960;SDS011;6040;49.358;11.140;2023-07-13T05:43:05;2.13;;;1.50;;
11960;SDS011;6040;49.358;11.140;2023-07-13T05:45:32;2.37;;;1.40;;
11960;SDS011;6040;49.358;11.140;2023-07-13T05:47:58;2.27;;;1.47;;
11960;SDS011;6040;49.358;11.140;2023-07-13T05:50:25;2.77;;;1.63;;
11960;SDS011;6040;49.358;11.140;2023-07-13T05:52:52;2.20;;;1.50;;
11960;SDS011;6040;49.358;11.140;2023-07-13T05:55:19;1.97;;;1.50;;
11960;SDS011;6040;49.358;11.140;2023-07-13T05:57:48;1.73;;;1.30;;
11960;SDS011;6040;49.358;11.140;2023-07-13T06:00:15;5.13;;;1.60;;
11960;SDS011;6040;49.358;11.140;2023-07-13T06:02:42;4.10;;;1.70;;
11960;SDS011;6040;49.358;11.140;2023-07-13T06:05:09;2.23;;;1.60;;
11960;SDS011;6040;49.358;11.140;2023-07-13T06:07:36;6.13;;;1.60;;
11960;SDS011;6040;49.358;11.140;2023-07-13T06:10:04;3.00;;;1.50;;
11960;SDS011;6040;49.358;11.140;2023-07-13T06:12:31;3.00;;;1.50;;
11960;SDS011;6040;49.358;11.140;2023-07-13T06:14:59;4.33;;;1.53;;
11960;SDS011;6040;49.358;11.140;2023-07-13T06:17:26;2.93;;;1.33;;
11960;SDS011;6040;49.358;11.140;2023-07-13T06:19:53;2.97;;;1.40;;
11960;SDS011;6040;49.358;11.140;2023-07-13T06:22:20;3.50;;;1.50;;
11960;SDS011;6040;49.358;11.140;2023-07-13T06:24:47;2.63;;;1.40;;
11960;SDS011;6040;49.358;11.140;2023-07-13T06:27:13;4.07;;;1.57;;
11960;SDS011;6040;49.358;11.140;2023-07-13T06:29:40;2.87;;;1.57;;
11960;SDS011;6040;49.358;11.140;2023-07-13T06:32:11;2.33;;;1.50;;
11960;SDS011;6040;49.358;11.140;2023-07-13T06:34:38;1.70;;;1.40;;
11960;SDS011;6040;49.358;11.140;2023-07-13T06:37:05;4.07;;;1.67;;
11960;SDS011;6040;49.358;11.140;2023-07-13T06:39:32;2.00;;;1.30;;
11960;SDS011;6040;49.358;11.140;2023-07-13T06:41:59;1.73;;;1.30;;
11960;SDS011;6040;49.358;11.140;2023-07-13T06:44:26;2.47;;;1.60;;
11960;SDS011;6040;49.358;11.140;2023-07-13T06:46:53;4.20;;;1.23;;
11960;SDS011;6040;49.358;11.140;2023-07-13T06:49:21;3.57;;;1.63;;
11960;SDS011;6040;49.358;11.140;2023-07-13T06:51:47;2.67;;;1.33;;
11960;SDS011;6040;49.358;11.140;2023-07-13T06:54:14;2.03;;;1.23;;
11960;SDS011;6040;49.358;11.140;2023-07-13T06:56:41;7.53;;;1.80;;
11960;SDS011;6040;49.358;11.140;2023-07-13T06:59:08;3.13;;;1.40;;
11960;SDS011;6040;49.358;11.140;2023-07-13T07:01:35;4.77;;;1.50;;
11960;SDS011;6040;49.358;11.140;2023-07-13T07:04:02;4.07;;;1.57;;
11960;SDS011;6040;49.358;11.140;2023-07-13T07:06:31;5.07;;;1.60;;
11960;SDS011;6040;49.358;11.140;2023-07-13T07:08:57;9.70;;;2.17;;
11960;SDS011;6040;49.358;11.140;2023-07-13T07:11:25;2.37;;;1.30;;
11960;SDS011;6040;49.358;11.140;2023-07-13T07:13:52;2.03;;;1.50;;
11960;SDS011;6040;49.358;11.140;2023-07-13T07:16:20;3.27;;;1.63;;
11960;SDS011;6040;49.358;11.140;2023-07-13T07:18:47;2.90;;;1.60;;
11960;SDS011;6040;49.358;11.140;2023-07-13T07:21:14;2.40;;;1.50;;
11960;SDS011;6040;49.358;11.140;2023-07-13T07:23:42;4.53;;;1.70;;
11960;SDS011;6040;49.358;11.140;2023-07-13T07:26:09;6.27;;;1.67;;
11960;SDS011;6040;49.358;11.140;2023-07-13T07:28:36;3.10;;;1.67;;
11960;SDS011;6040;49.358;11.140;2023-07-13T07:31:03;4.83;;;1.70;;
11960;SDS011;6040;49.358;11.140;2023-07-13T07:33:30;1.83;;;1.37;;
11960;SDS011;6040;49.358;11.140;2023-07-13T07:35:58;2.37;;;1.30;;
11960;SDS011;6040;49.358;11.140;2023-07-13T07:38:25;4.70;;;1.50;;
11960;SDS011;6040;49.358;11.140;2023-07-13T07:40:53;3.30;;;1.40;;
11960;SDS011;6040;49.358;11.140;2023-07-13T07:43:20;3.57;;;1.50;;
11960;SDS011;6040;49.358;11.140;2023-07-13T07:45:47;2.53;;;1.60;;
11960;SDS011;6040;49.358;11.140;2023-07-13T07:48:14;4.53;;;1.60;;
11960;SDS011;6040;49.358;11.140;2023-07-13T07:50:41;7.10;;;1.87;;
11960;SDS011;6040;49.358;11.140;2023-07-13T07:53:08;2.57;;;1.50;;
11960;SDS011;6040;49.358;11.140;2023-07-13T07:55:36;6.20;;;1.83;;
11960;SDS011;6040;49.358;11.140;2023-07-13T07:58:04;1.98;;;1.40;;
11960;SDS011;6040;49.358;11.140;2023-07-13T08:00:32;3.65;;;1.73;;
11960;SDS011;6040;49.358;11.140;2023-07-13T08:03:00;4.65;;;1.80;;
11960;SDS011;6040;49.358;11.140;2023-07-13T08:05:28;4.30;;;1.60;;
11960;SDS011;6040;49.358;11.140;2023-07-13T08:07:55;5.57;;;1.85;;
11960;SDS011;6040;49.358;11.140;2023-07-13T08:10:22;2.95;;;1.73;;
11960;SDS011;6040;49.358;11.140;2023-07-13T08:12:48;2.80;;;1.42;;
11960;SDS011;6040;49.358;11.140;2023-07-13T08:15:17;3.50;;;1.70;;
11960;SDS011;6040;49.358;11.140;2023-07-13T08:17:45;2.85;;;1.50;;
11960;SDS011;6040;49.358;11.140;2023-07-13T08:20:13;3.13;;;1.77;;
11960;SDS011;6040;49.358;11.140;2023-07-13T08:22:40;3.63;;;1.67;;
11960;SDS011;6040;49.358;11.140;2023-07-13T08:25:07;3.78;;;1.52;;
11960;SDS011;6040;49.358;11.140;2023-07-13T08:27:34;4.90;;;1.48;;
11960;SDS011;6040;49.358;11.140;2023-07-13T08:30:01;5.40;;;1.65;;
11960;SDS011;6040;49.358;11.140;2023-07-13T08:32:29;5.20;;;1.60;;
11960;SDS011;6040;49.358;11.140;2023-07-13T08:34:56;5.50;;;1.60;;
11960;SDS011;6040;49.358;11.140;2023-07-13T08:37:23;2.65;;;1.40;;
11960;SDS011;6040;49.358;11.140;2023-07-13T08:39:50;2.40;;;1.42;;
11960;SDS011;6040;49.358;11.140;2023-07-13T08:42:21;3.72;;;1.40;;
11960;SDS011;6040;49.358;11.140;2023-07-13T08:44:55;2.08;;;1.27;;
11960;SDS011;6040;49.358;11.140;2023-07-13T08:47:31;1.58;;;1.20;;
11960;SDS011;6040;49.358;11.140;2023-07-13T08:50:01;2.38;;;1.20;;
11960;SDS011;6040;49.358;11.140;2023-07-13T08:52:30;2.20;;;1.10;;
11960;SDS011;6040;49.358;11.140;2023-07-13T08:55:02;2.88;;;1.63;;
11960;SDS011;6040;49.358;11.140;2023-07-13T08:57:36;3.47;;;1.30;;
11960;SDS011;6040;49.358;11.140;2023-07-13T09:00:04;2.03;;;1.33;;
11960;SDS011;6040;49.358;11.140;2023-07-13T09:02:38;2.40;;;1.20;;
11960;SDS011;6040;49.358;11.140;2023-07-13T09:05:10;1.50;;;1.27;;
11960;SDS011;6040;49.358;11.140;2023-07-13T09:07:56;2.58;;;1.35;;
11960;SDS011;6040;49.358;11.140;2023-07-13T09:10:32;2.97;;;1.20;;
11960;SDS011;6040;49.358;11.140;2023-07-13T09:13:11;2.85;;;1.25;;
11960;SDS011;6040;49.358;11.140;2023-07-13T09:15:45;1.73;;;1.30;;
11960;SDS011;6040;49.358;11.140;2023-07-13T09:18:16;3.40;;;1.40;;
11960;SDS011;6040;49.358;11.140;2023-07-13T09:20:49;1.75;;;1.20;;
11960;SDS011;6040;49.358;11.140;2023-07-13T09:23:19;2.20;;;1.30;;
11960;SDS011;6040;49.358;11.140;2023-07-13T09:25:48;3.05;;;1.42;;
11960;SDS011;6040;49.358;11.140;2023-07-13T09:28:21;1.38;;;1.25;;
11960;SDS011;6040;49.358;11.140;2023-07-13T09:30:51;1.42;;;1.20;;
11960;SDS011;6040;49.358;11.140;2023-07-13T09:33:23;2.20;;;1.20;;
11960;SDS011;6040;49.358;11.140;2023-07-13T09:35:54;2.53;;;1.30;;
11960;SDS011;6040;49.358;11.140;2023-07-13T09:38:22;2.55;;;1.10;;
11960;SDS011;6040;49.358;11.140;2023-07-13T09:41:04;3.13;;;1.45;;
11960;SDS011;6040;49.358;11.140;2023-07-13T09:46:27;5.13;;;1.42;;
11960;SDS011;6040;49.358;11.140;2023-07-13T09:48:56;1.98;;;1.10;;
11960;SDS011;6040;49.358;11.140;2023-07-13T09:51:23;2.00;;;1.38;;
11960;SDS011;6040;49.358;11.140;2023-07-13T09:53:49;2.15;;;1.23;;
11960;SDS011;6040;49.358;11.140;2023-07-13T09:56:20;1.83;;;1.20;;
11960;SDS011;6040;49.358;11.140;2023-07-13T09:58:47;4.75;;;1.52;;
11960;SDS011;6040;49.358;11.140;2023-07-13T10:01:15;1.40;;;1.30;;
11960;SDS011;6040;49.358;11.140;2023-07-13T10:03:51;4.45;;;1.30;;
11960;SDS011;6040;49.358;11.140;2023-07-13T10:06:21;2.38;;;1.15;;
11960;SDS011;6040;49.358;11.140;2023-07-13T10:08:49;2.55;;;1.40;;
11960;SDS011;6040;49.358;11.140;2023-07-13T10:11:19;3.50;;;1.40;;
11960;SDS011;6040;49.358;11.140;2023-07-13T10:13:50;1.30;;;1.20;;
11960;SDS011;6040;49.358;11.140;2023-07-13T10:16:19;3.42;;;1.33;;
11960;SDS011;6040;49.358;11.140;2023-07-13T10:18:48;3.17;;;1.30;;
11960;SDS011;6040;49.358;11.140;2023-07-13T10:21:17;4.95;;;1.50;;
11960;SDS011;6040;49.358;11.140;2023-07-13T10:23:48;2.90;;;1.48;;
11960;SDS011;6040;49.358;11.140;2023-07-13T10:26:21;2.65;;;1.20;;
11960;SDS011;6040;49.358;11.140;2023-07-13T10:28:52;1.73;;;1.30;;
11960;SDS011;6040;49.358;11.140;2023-07-13T10:31:23;3.70;;;1.40;;
11960;SDS011;6040;49.358;11.140;2023-07-13T10:33:50;3.35;;;1.30;;
11960;SDS011;6040;49.358;11.140;2023-07-13T10:36:20;3.85;;;1.50;;
11960;SDS011;6040;49.358;11.140;2023-07-13T10:38:55;2.72;;;1.20;;
11960;SDS011;6040;49.358;11.140;2023-07-13T10:41:25;1.73;;;1.38;;
11960;SDS011;6040;49.358;11.140;2023-07-13T10:43:55;2.35;;;1.30;;
11960;SDS011;6040;49.358;11.140;2023-07-13T10:46:23;3.78;;;1.38;;
11960;SDS011;6040;49.358;11.140;2023-07-13T10:48:54;2.22;;;1.30;;
11960;SDS011;6040;49.358;11.140;2023-07-13T10:51:24;2.53;;;1.52;;
11960;SDS011;6040;49.358;11.140;2023-07-13T10:56:52;3.33;;;1.52;;
11960;SDS011;6040;49.358;11.140;2023-07-13T10:59:32;1.50;;;1.20;;
11960;SDS011;6040;49.358;11.140;2023-07-13T11:02:10;2.40;;;1.23;;
11960;SDS011;6040;49.358;11.140;2023-07-13T11:04:42;3.22;;;1.40;;
11960;SDS011;6040;49.358;11.140;2023-07-13T11:07:19;2.00;;;1.20;;
11960;SDS011;6040;49.358;11.140;2023-07-13T11:09:49;1.73;;;1.40;;
11960;SDS011;6040;49.358;11.140;2023-07-13T11:12:29;2.78;;;1.60;;
11960;SDS011;6040;49.358;11.140;2023-07-13T11:15:27;1.60;;;1.20;;
11960;SDS011;6040;49.358;11.140;2023-07-13T11:18:00;2.83;;;1.40;;
11960;SDS011;6040;49.358;11.140;2023-07-13T11:20:36;1.83;;;1.20;;
11960;SDS011;6040;49.358;11.140;2023-07-13T11:23:19;3.60;;;1.60;;
11960;SDS011;6040;49.358;11.140;2023-07-13T11:25:56;2.13;;;1.17;;
11960;SDS011;6040;49.358;11.140;2023-07-13T11:28:26;6.10;;;1.40;;
11960;SDS011;6040;49.358;11.140;2023-07-13T11:31:03;1.58;;;1.27;;
11960;SDS011;6040;49.358;11.140;2023-07-13T11:36:30;2.60;;;1.52;;
11960;SDS011;6040;49.358;11.140;2023-07-13T11:39:03;4.75;;;1.48;;
11960;SDS011;6040;49.358;11.140;2023-07-13T11:41:38;3.50;;;1.30;;
11960;SDS011;6040;49.358;11.140;2023-07-13T11:44:14;5.78;;;1.67;;
11960;SDS011;6040;49.358;11.140;2023-07-13T11:46:47;2.40;;;1.30;;
11960;SDS011;6040;49.358;11.140;2023-07-13T11:49:16;3.42;;;1.40;;
11960;SDS011;6040;49.358;11.140;2023-07-13T11:51:44;2.92;;;1.23;;
11960;SDS011;6040;49.358;11.140;2023-07-13T11:54:19;2.97;;;1.27;;
11960;SDS011;6040;49.358;11.140;2023-07-13T11:56:52;1.75;;;1.40;;
11960;SDS011;6040;49.358;11.140;2023-07-13T11:59:23;3.50;;;1.50;;
11960;SDS011;6040;49.358;11.140;2023-07-13T12:01:51;3.03;;;1.52;;
11960;SDS011;6040;49.358;11.140;2023-07-13T12:04:21;1.30;;;1.20;;
11960;SDS011;6040;49.358;11.140;2023-07-13T12:06:57;3.50;;;1.50;;
11960;SDS011;6040;49.358;11.140;2023-07-13T12:09:26;2.08;;;1.50;;
11960;SDS011;6040;49.358;11.140;2023-07-13T12:11:54;3.65;;;1.58;;
11960;SDS011;6040;49.358;11.140;2023-07-13T12:14:24;2.47;;;1.50;;
11960;SDS011;6040;49.358;11.140;2023-07-13T12:16:52;2.90;;;1.50;;
11960;SDS011;6040;49.358;11.140;2023-07-13T12:19:20;3.92;;;1.58;;
11960;SDS011;6040;49.358;11.140;2023-07-13T12:21:49;2.08;;;1.40;;
11960;SDS011;6040;49.358;11.140;2023-07-13T12:24:19;2.72;;;1.60;;
11960;SDS011;6040;49.358;11.140;2023-07-13T12:26:52;2.28;;;1.38;;
11960;SDS011;6040;49.358;11.140;2023-07-13T12:29:20;1.92;;;1.40;;
11960;SDS011;6040;49.358;11.140;2023-07-13T12:31:49;3.92;;;1.58;;
11960;SDS011;6040;49.358;11.140;2023-07-13T12:34:18;3.13;;;1.50;;
11960;SDS011;6040;49.358;11.140;2023-07-13T12:36:46;2.45;;;1.23;;
11960;SDS011;6040;49.358;11.140;2023-07-13T12:39:15;2.33;;;1.65;;
11960;SDS011;6040;49.358;11.140;2023-07-13T12:41:45;1.98;;;1.33;;
11960;SDS011;6040;49.358;11.140;2023-07-13T12:44:12;3.15;;;1.30;;
11960;SDS011;6040;49.358;11.140;2023-07-13T12:46:52;2.83;;;1.30;;
11960;SDS011;6040;49.358;11.140;2023-07-13T12:49:22;2.42;;;1.30;;
11960;SDS011;6040;49.358;11.140;2023-07-13T12:51:55;3.00;;;1.40;;
11960;SDS011;6040;49.358;11.140;2023-07-13T12:54:24;1.48;;;1.33;;
11960;SDS011;6040;49.358;11.140;2023-07-13T12:56:51;3.05;;;1.30;;
11960;SDS011;6040;49.358;11.140;2023-07-13T12:59:21;1.90;;;1.50;;
11960;SDS011;6040;49.358;11.140;2023-07-13T13:01:53;3.00;;;1.50;;
11960;SDS011;6040;49.358;11.140;2023-07-13T13:04:20;1.75;;;1.30;;
11960;SDS011;6040;49.358;11.140;2023-07-13T13:06:48;2.05;;;1.33;;
11960;SDS011;6040;49.358;11.140;2023-07-13T13:09:15;3.10;;;1.30;;
11960;SDS011;6040;49.358;11.140;2023-07-13T13:11:43;2.03;;;1.50;;
11960;SDS011;6040;49.358;11.140;2023-07-13T13:14:10;2.17;;;1.45;;
11960;SDS011;6040;49.358;11.140;2023-07-13T13:16:39;3.72;;;1.33;;
11960;SDS011;6040;49.358;11.140;2023-07-13T13:19:14;3.17;;;1.42;;
11960;SDS011;6040;49.358;11.140;2023-07-13T13:21:43;3.80;;;1.58;;
11960;SDS011;6040;49.358;11.140;2023-07-13T13:24:11;4.13;;;1.45;;
11960;SDS011;6040;49.358;11.140;2023-07-13T13:26:39;2.53;;;1.55;;
11960;SDS011;6040;49.358;11.140;2023-07-13T13:29:11;8.30;;;1.50;;
11960;SDS011;6040;49.358;11.140;2023-07-13T13:31:40;2.85;;;1.60;;
11960;SDS011;6040;49.358;11.140;2023-07-13T13:34:08;4.53;;;1.67;;
11960;SDS011;6040;49.358;11.140;2023-07-13T13:36:37;2.90;;;1.60;;
11960;SDS011;6040;49.358;11.140;2023-07-13T13:39:07;4.70;;;1.85;;
11960;SDS011;6040;49.358;11.140;2023-07-13T13:41:47;4.43;;;1.60;;
11960;SDS011;6040;49.358;11.140;2023-07-13T13:44:15;4.43;;;1.70;;
11960;SDS011;6040;49.358;11.140;2023-07-13T13:46:43;2.22;;;1.40;;
11960;SDS011;6040;49.358;11.140;2023-07-13T13:49:13;1.92;;;1.50;;
11960;SDS011;6040;49.358;11.140;2023-07-13T13:51:43;2.55;;;1.55;;
11960;SDS011;6040;49.358;11.140;2023-07-13T13:54:11;3.60;;;1.60;;
11960;SDS011;6040;49.358;11.140;2023-07-13T13:56:41;3.67;;;1.40;;
11960;SDS011;6040;49.358;11.140;2023-07-13T13:59:08;3.08;;;1.52;;
11960;SDS011;6040;49.358;11.140;2023-07-13T14:01:35;3.42;;;1.50;;
11960;SDS011;6040;49.358;11.140;2023-07-13T14:04:02;3.38;;;1.83;;
11960;SDS011;6040;49.358;11.140;2023-07-13T14:06:30;2.20;;;1.40;;
11960;SDS011;6040;49.358;11.140;2023-07-13T14:08:59;2.58;;;1.20;;
11960;SDS011;6040;49.358;11.140;2023-07-13T14:11:27;3.60;;;1.67;;
11960;SDS011;6040;49.358;11.140;2023-07-13T14:13:58;2.42;;;1.58;;
11960;SDS011;6040;49.358;11.140;2023-07-13T14:16:26;5.72;;;1.73;;
11960;SDS011;6040;49.358;11.140;2023-07-13T14:18:56;3.13;;;1.35;;
11960;SDS011;6040;49.358;11.140;2023-07-13T14:21:25;4.32;;;1.85;;
11960;SDS011;6040;49.358;11.140;2023-07-13T14:23:53;4.13;;;1.63;;
11960;SDS011;6040;49.358;11.140;2023-07-13T14:26:22;1.90;;;1.40;;
11960;SDS011;6040;49.358;11.140;2023-07-13T14:28:51;2.22;;;1.42;;
11960;SDS011;6040;49.358;11.140;2023-07-13T14:31:20;4.03;;;1.70;;
11960;SDS011;6040;49.358;11.140;2023-07-13T14:33:48;3.42;;;1.55;;
11960;SDS011;6040;49.358;11.140;2023-07-13T14:36:20;2.15;;;1.42;;
11960;SDS011;6040;49.358;11.140;2023-07-13T14:38:51;1.88;;;1.48;;
11960;SDS011;6040;49.358;11.140;2023-07-13T14:41:18;3.53;;;1.67;;
11960;SDS011;6040;49.358;11.140;2023-07-13T14:43:46;1.92;;;1.33;;
11960;SDS011;6040;49.358;11.140;2023-07-13T14:46:18;6.90;;;1.63;;
11960;SDS011;6040;49.358;11.140;2023-07-13T14:48:50;2.00;;;1.30;;
11960;SDS011;6040;49.358;11.140;2023-07-13T14:51:17;1.92;;;1.40;;
11960;SDS011;6040;49.358;11.140;2023-07-13T14:53:44;2.00;;;1.38;;
11960;SDS011;6040;49.358;11.140;2023-07-13T14:56:11;4.15;;;1.70;;
11960;SDS011;6040;49.358;11.140;2023-07-13T14:58:39;3.53;;;1.63;;
11960;SDS011;6040;49.358;11.140;2023-07-13T15:01:09;3.28;;;1.65;;
11960;SDS011;6040;49.358;11.140;2023-07-13T15:03:40;1.83;;;1.33;;
11960;SDS011;6040;49.358;11.140;2023-07-13T15:06:09;1.50;;;1.20;;